sensor_id;sensor_type;location;lat;lon;timestamp;P1;durP1;ratioP1;P2;durP2;ratioP2
16119;SDS011;12670;53.502;10.252;2023-07-30T00:01:49;7.63;;;4.50;;
16119;SDS011;12670;53.502;10.252;2023-07-30T00:04:52;8.23;;;4.30;;
16119;SDS011;12670;53.502;10.252;2023-07-30T00:07:56;9.30;;;5.13;;
16119;SDS011;12670;53.502;10.252;2023-07-30T00:10:59;5.83;;;4.30;;
16119;SDS011;12670;53.502;10.252;2023-07-30T00:14:02;5.57;;;4.40;;
16119;SDS011;12670;53.502;10.252;2023-07-30T00:17:04;6.53;;;4.53;;
16119;SDS011;12670;53.502;10.252;2023-07-30T00:20:08;7.27;;;4.57;;
16119;SDS011;12670;53.502;10.252;2023-07-30T00:23:12;6.83;;;4.60;;
16119;SDS011;12670;53.502;10.252;2023-07-30T00:26:15;8.80;;;5.37;;
16119;SDS011;12670;53.502;10.252;2023-07-30T00:29:17;12.03;;;5.00;;
16119;SDS011;12670;53.502;10.252;2023-07-30T00:32:20;7.90;;;4.70;;
16119;SDS011;12670;53.502;10.252;2023-07-30T00:35:23;10.80;;;5.30;;
16119;SDS011;12670;53.502;10.252;2023-07-30T00:38:27;10.33;;;5.53;;
16119;SDS011;12670;53.502;10.252;2023-07-30T00:41:30;8.60;;;5.10;;
16119;SDS011;12670;53.502;10.252;2023-07-30T00:44:32;8.33;;;5.17;;
16119;SDS011;12670;53.502;10.252;2023-07-30T00:47:35;9.27;;;5.57;;
16119;SDS011;12670;53.502;10.252;2023-07-30T00:50:40;10.97;;;5.27;;
16119;SDS011;12670;53.502;10.252;2023-07-30T00:53:45;8.57;;;5.00;;
16119;SDS011;12670;53.502;10.252;2023-07-30T00:56:51;7.87;;;5.40;;
16119;SDS011;12670;53.502;10.252;2023-07-30T00:59:55;12.53;;;5.33;;
16119;SDS011;12670;53.502;10.252;2023-07-30T01:02:58;8.37;;;5.10;;
16119;SDS011;12670;53.502;10.252;2023-07-30T01:06:01;6.83;;;5.10;;
16119;SDS011;12670;53.502;10.252;2023-07-30T01:09:06;9.07;;;4.87;;
16119;SDS011;12670;53.502;10.252;2023-07-30T01:12:08;7.10;;;5.07;;
16119;SDS011;12670;53.502;10.252;2023-07-30T01:15:11;7.97;;;4.90;;
16119;SDS011;12670;53.502;10.252;2023-07-30T01:18:15;11.97;;;5.07;;
16119;SDS011;12670;53.502;10.252;2023-07-30T01:21:19;7.00;;;4.53;;
16119;SDS011;12670;53.502;10.252;2023-07-30T01:24:21;7.47;;;5.23;;
16119;SDS011;12670;53.502;10.252;2023-07-30T01:27:25;7.87;;;5.10;;
16119;SDS011;12670;53.502;10.252;2023-07-30T01:30:31;6.93;;;5.10;;
16119;SDS011;12670;53.502;10.252;2023-07-30T01:33:38;8.10;;;5.23;;
16119;SDS011;12670;53.502;10.252;2023-07-30T01:36:44;9.30;;;5.57;;
16119;SDS011;12670;53.502;10.252;2023-07-30T01:39:48;10.07;;;5.80;;
16119;SDS011;12670;53.502;10.252;2023-07-30T01:42:52;9.33;;;5.27;;
16119;SDS011;12670;53.502;10.252;2023-07-30T01:45:55;8.10;;;4.77;;
16119;SDS011;12670;53.502;10.252;2023-07-30T01:48:57;6.77;;;4.63;;
16119;SDS011;12670;53.502;10.252;2023-07-30T01:52:02;9.50;;;4.80;;
16119;SDS011;12670;53.502;10.252;2023-07-30T01:55:05;6.53;;;4.00;;
16119;SDS011;12670;53.502;10.252;2023-07-30T01:58:08;8.80;;;4.80;;
16119;SDS011;12670;53.502;10.252;2023-07-30T02:01:11;6.77;;;4.47;;
16119;SDS011;12670;53.502;10.252;2023-07-30T02:04:14;8.77;;;4.67;;
16119;SDS011;12670;53.502;10.252;2023-07-30T02:07:20;9.47;;;5.33;;
16119;SDS011;12670;53.502;10.252;2023-07-30T02:10:23;7.40;;;4.60;;
16119;SDS011;12670;53.502;10.252;2023-07-30T02:13:26;6.73;;;4.70;;
16119;SDS011;12670;53.502;10.252;2023-07-30T02:16:29;8.13;;;4.87;;
16119;SDS011;12670;53.502;10.252;2023-07-30T02:19:32;13.27;;;5.37;;
16119;SDS011;12670;53.502;10.252;2023-07-30T02:22:36;10.03;;;5.30;;
16119;SDS011;12670;53.502;10.252;2023-07-30T02:25:38;9.13;;;5.23;;
16119;SDS011;12670;53.502;10.252;2023-07-30T02:28:41;7.87;;;5.73;;
16119;SDS011;12670;53.502;10.252;2023-07-30T02:31:44;6.43;;;5.27;;
16119;SDS011;12670;53.502;10.252;2023-07-30T02:34:47;8.60;;;5.33;;
16119;SDS011;12670;53.502;10.252;2023-07-30T02:37:51;8.30;;;5.60;;
16119;SDS011;12670;53.502;10.252;2023-07-30T02:40:54;10.50;;;5.93;;
16119;SDS011;12670;53.502;10.252;2023-07-30T02:43:56;8.27;;;6.00;;
16119;SDS011;12670;53.502;10.252;2023-07-30T02:46:59;11.23;;;5.60;;
16119;SDS011;12670;53.502;10.252;2023-07-30T02:50:02;8.57;;;6.03;;
16119;SDS011;12670;53.502;10.252;2023-07-30T02:53:06;9.03;;;5.97;;
16119;SDS011;12670;53.502;10.252;2023-07-30T02:56:08;9.80;;;6.40;;
16119;SDS011;12670;53.502;10.252;2023-07-30T02:59:11;17.07;;;6.63;;
16119;SDS011;12670;53.502;10.252;2023-07-30T03:02:13;8.70;;;6.37;;
16119;SDS011;12670;53.502;10.252;2023-07-30T03:05:16;10.13;;;6.43;;
16119;SDS011;12670;53.502;10.252;2023-07-30T03:08:20;10.87;;;6.73;;
16119;SDS011;12670;53.502;10.252;2023-07-30T03:11:23;9.27;;;6.20;;
16119;SDS011;12670;53.502;10.252;2023-07-30T03:14:25;12.57;;;6.50;;
16119;SDS011;12670;53.502;10.252;2023-07-30T03:17:28;7.80;;;6.13;;
16119;SDS011;12670;53.502;10.252;2023-07-30T03:20:31;10.90;;;6.37;;
16119;SDS011;12670;53.502;10.252;2023-07-30T03:23:35;14.47;;;7.17;;
16119;SDS011;12670;53.502;10.252;2023-07-30T03:26:38;9.33;;;6.60;;
16119;SDS011;12670;53.502;10.252;2023-07-30T03:29:40;10.30;;;6.70;;
16119;SDS011;12670;53.502;10.252;2023-07-30T03:32:43;9.77;;;6.70;;
16119;SDS011;12670;53.502;10.252;2023-07-30T03:35:46;8.70;;;6.40;;
16119;SDS011;12670;53.502;10.252;2023-07-30T03:38:50;9.23;;;6.80;;
16119;SDS011;12670;53.502;10.252;2023-07-30T03:41:52;9.87;;;7.17;;
16119;SDS011;12670;53.502;10.252;2023-07-30T03:44:55;10.97;;;7.33;;
16119;SDS011;12670;53.502;10.252;2023-07-30T03:47:58;11.27;;;7.37;;
16119;SDS011;12670;53.502;10.252;2023-07-30T03:51:01;11.90;;;7.43;;
16119;SDS011;12670;53.502;10.252;2023-07-30T03:54:06;12.23;;;7.60;;
16119;SDS011;12670;53.502;10.252;2023-07-30T03:57:08;10.00;;;7.17;;
16119;SDS011;12670;53.502;10.252;2023-07-30T04:00:11;9.67;;;6.87;;
16119;SDS011;12670;53.502;10.252;2023-07-30T04:03:14;9.90;;;6.70;;
16119;SDS011;12670;53.502;10.252;2023-07-30T04:06:16;9.57;;;7.00;;
16119;SDS011;12670;53.502;10.252;2023-07-30T04:09:20;11.03;;;6.70;;
16119;SDS011;12670;53.502;10.252;2023-07-30T04:12:23;10.57;;;7.07;;
16119;SDS011;12670;53.502;10.252;2023-07-30T04:15:26;10.33;;;7.03;;
16119;SDS011;12670;53.502;10.252;2023-07-30T04:18:28;10.83;;;7.03;;
16119;SDS011;12670;53.502;10.252;2023-07-30T04:21:31;11.60;;;7.00;;
16119;SDS011;12670;53.502;10.252;2023-07-30T04:24:35;10.50;;;6.90;;
16119;SDS011;12670;53.502;10.252;2023-07-30T04:27:38;11.60;;;6.33;;
16119;SDS011;12670;53.502;10.252;2023-07-30T04:30:41;11.03;;;6.97;;
16119;SDS011;12670;53.502;10.252;2023-07-30T04:33:43;10.33;;;7.03;;
16119;SDS011;12670;53.502;10.252;2023-07-30T04:36:46;9.10;;;6.23;;
16119;SDS011;12670;53.502;10.252;2023-07-30T04:39:50;12.80;;;7.33;;
16119;SDS011;12670;53.502;10.252;2023-07-30T04:42:53;10.07;;;6.30;;
16119;SDS011;12670;53.502;10.252;2023-07-30T04:45:55;12.17;;;6.93;;
16119;SDS011;12670;53.502;10.252;2023-07-30T04:49:01;16.23;;;9.23;;
16119;SDS011;12670;53.502;10.252;2023-07-30T04:52:05;11.43;;;6.80;;
16119;SDS011;12670;53.502;10.252;2023-07-30T04:55:10;12.73;;;8.80;;
16119;SDS011;12670;53.502;10.252;2023-07-30T04:58:13;14.10;;;7.13;;
16119;SDS011;12670;53.502;10.252;2023-07-30T05:01:15;14.93;;;8.00;;
16119;SDS011;12670;53.502;10.252;2023-07-30T05:04:18;12.77;;;7.30;;
16119;SDS011;12670;53.502;10.252;2023-07-30T05:07:20;14.90;;;6.97;;
16119;SDS011;12670;53.502;10.252;2023-07-30T05:10:25;13.40;;;6.77;;
16119;SDS011;12670;53.502;10.252;2023-07-30T05:13:28;12.27;;;6.47;;
16119;SDS011;12670;53.502;10.252;2023-07-30T05:16:30;11.53;;;6.90;;
16119;SDS011;12670;53.502;10.252;2023-07-30T05:19:33;15.30;;;6.97;;
16119;SDS011;12670;53.502;10.252;2023-07-30T05:22:36;12.83;;;7.30;;
16119;SDS011;12670;53.502;10.252;2023-07-30T05:25:40;17.77;;;7.57;;
16119;SDS011;12670;53.502;10.252;2023-07-30T05:28:42;14.20;;;7.17;;
16119;SDS011;12670;53.502;10.252;2023-07-30T05:31:45;13.63;;;6.83;;
16119;SDS011;12670;53.502;10.252;2023-07-30T05:34:48;11.33;;;6.80;;
16119;SDS011;12670;53.502;10.252;2023-07-30T05:37:50;10.43;;;6.97;;
16119;SDS011;12670;53.502;10.252;2023-07-30T05:40:54;17.33;;;6.97;;
16119;SDS011;12670;53.502;10.252;2023-07-30T05:43:57;17.50;;;6.63;;
16119;SDS011;12670;53.502;10.252;2023-07-30T05:47:00;10.90;;;7.03;;
16119;SDS011;12670;53.502;10.252;2023-07-30T05:50:02;11.93;;;6.97;;
16119;SDS011;12670;53.502;10.252;2023-07-30T05:53:05;12.30;;;7.10;;
16119;SDS011;12670;53.502;10.252;2023-07-30T05:56:09;15.70;;;7.10;;
16119;SDS011;12670;53.502;10.252;2023-07-30T05:59:14;17.60;;;6.83;;
16119;SDS011;12670;53.502;10.252;2023-07-30T06:02:22;12.13;;;5.90;;
16119;SDS011;12670;53.502;10.252;2023-07-30T06:05:24;10.93;;;6.27;;
16119;SDS011;12670;53.502;10.252;2023-07-30T06:08:27;14.50;;;7.87;;
16119;SDS011;12670;53.502;10.252;2023-07-30T06:11:32;16.23;;;8.43;;
16119;SDS011;12670;53.502;10.252;2023-07-30T06:14:34;15.67;;;8.50;;
16119;SDS011;12670;53.502;10.252;2023-07-30T06:17:37;16.40;;;7.00;;
16119;SDS011;12670;53.502;10.252;2023-07-30T06:20:40;18.20;;;7.90;;
16119;SDS011;12670;53.502;10.252;2023-07-30T06:23:42;13.10;;;6.60;;
16119;SDS011;12670;53.502;10.252;2023-07-30T06:26:46;17.13;;;7.30;;
16119;SDS011;12670;53.502;10.252;2023-07-30T06:29:49;12.63;;;6.10;;
16119;SDS011;12670;53.502;10.252;2023-07-30T06:32:52;15.80;;;6.23;;
16119;SDS011;12670;53.502;10.252;2023-07-30T06:35:55;19.67;;;8.27;;
16119;SDS011;12670;53.502;10.252;2023-07-30T06:38:57;17.77;;;7.43;;
16119;SDS011;12670;53.502;10.252;2023-07-30T06:42:01;15.07;;;6.87;;
16119;SDS011;12670;53.502;10.252;2023-07-30T06:45:05;17.70;;;6.03;;
16119;SDS011;12670;53.502;10.252;2023-07-30T06:48:08;22.77;;;9.53;;
16119;SDS011;12670;53.502;10.252;2023-07-30T06:51:11;16.77;;;6.97;;
16119;SDS011;12670;53.502;10.252;2023-07-30T06:54:15;17.97;;;6.43;;
16119;SDS011;12670;53.502;10.252;2023-07-30T06:57:19;33.23;;;15.83;;
16119;SDS011;12670;53.502;10.252;2023-07-30T07:00:21;21.10;;;7.83;;
16119;SDS011;12670;53.502;10.252;2023-07-30T07:03:24;17.73;;;8.17;;
16119;SDS011;12670;53.502;10.252;2023-07-30T07:06:27;23.27;;;9.37;;
16119;SDS011;12670;53.502;10.252;2023-07-30T07:09:30;14.93;;;7.67;;
16119;SDS011;12670;53.502;10.252;2023-07-30T07:12:34;21.17;;;8.03;;
16119;SDS011;12670;53.502;10.252;2023-07-30T07:15:36;42.37;;;17.37;;
16119;SDS011;12670;53.502;10.252;2023-07-30T07:18:39;19.37;;;8.30;;
16119;SDS011;12670;53.502;10.252;2023-07-30T07:21:42;15.40;;;8.37;;
16119;SDS011;12670;53.502;10.252;2023-07-30T07:24:44;20.87;;;8.53;;
16119;SDS011;12670;53.502;10.252;2023-07-30T07:27:48;24.23;;;8.70;;
16119;SDS011;12670;53.502;10.252;2023-07-30T07:30:51;18.60;;;6.80;;
16119;SDS011;12670;53.502;10.252;2023-07-30T07:33:54;24.87;;;8.10;;
16119;SDS011;12670;53.502;10.252;2023-07-30T07:36:57;19.43;;;7.17;;
16119;SDS011;12670;53.502;10.252;2023-07-30T07:39:59;21.53;;;7.87;;
16119;SDS011;12670;53.502;10.252;2023-07-30T07:43:05;24.87;;;8.50;;
16119;SDS011;12670;53.502;10.252;2023-07-30T07:46:07;19.53;;;6.73;;
16119;SDS011;12670;53.502;10.252;2023-07-30T07:49:14;20.03;;;6.77;;
16119;SDS011;12670;53.502;10.252;2023-07-30T07:52:17;17.87;;;6.90;;
16119;SDS011;12670;53.502;10.252;2023-07-30T07:55:20;21.53;;;7.00;;
16119;SDS011;12670;53.502;10.252;2023-07-30T07:58:24;20.50;;;6.47;;
16119;SDS011;12670;53.502;10.252;2023-07-30T08:01:27;18.30;;;6.73;;
16119;SDS011;12670;53.502;10.252;2023-07-30T08:04:29;15.48;;;5.35;;
16119;SDS011;12670;53.502;10.252;2023-07-30T08:07:32;30.63;;;7.13;;
16119;SDS011;12670;53.502;10.252;2023-07-30T08:10:38;18.77;;;5.63;;
16119;SDS011;12670;53.502;10.252;2023-07-30T08:13:43;12.93;;;5.77;;
16119;SDS011;12670;53.502;10.252;2023-07-30T08:16:46;14.77;;;5.55;;
16119;SDS011;12670;53.502;10.252;2023-07-30T08:19:49;20.85;;;5.93;;
16119;SDS011;12670;53.502;10.252;2023-07-30T08:22:52;15.43;;;5.90;;
16119;SDS011;12670;53.502;10.252;2023-07-30T08:25:55;18.98;;;6.13;;
16119;SDS011;12670;53.502;10.252;2023-07-30T08:28:59;19.15;;;5.20;;
16119;SDS011;12670;53.502;10.252;2023-07-30T08:32:02;13.43;;;4.75;;
16119;SDS011;12670;53.502;10.252;2023-07-30T08:35:06;27.50;;;11.65;;
16119;SDS011;12670;53.502;10.252;2023-07-30T08:38:09;15.63;;;5.57;;
16119;SDS011;12670;53.502;10.252;2023-07-30T08:41:12;16.27;;;4.68;;
16119;SDS011;12670;53.502;10.252;2023-07-30T08:44:16;31.17;;;14.07;;
16119;SDS011;12670;53.502;10.252;2023-07-30T08:47:19;20.15;;;6.53;;
16119;SDS011;12670;53.502;10.252;2023-07-30T08:50:22;14.60;;;4.40;;
16119;SDS011;12670;53.502;10.252;2023-07-30T08:53:25;10.82;;;4.22;;
16119;SDS011;12670;53.502;10.252;2023-07-30T08:56:28;12.27;;;3.42;;
16119;SDS011;12670;53.502;10.252;2023-07-30T08:59:36;13.25;;;3.70;;
16119;SDS011;12670;53.502;10.252;2023-07-30T09:02:43;12.25;;;3.72;;
16119;SDS011;12670;53.502;10.252;2023-07-30T09:05:48;19.63;;;4.45;;
16119;SDS011;12670;53.502;10.252;2023-07-30T09:08:51;10.52;;;3.63;;
16119;SDS011;12670;53.502;10.252;2023-07-30T09:11:55;13.80;;;3.08;;
16119;SDS011;12670;53.502;10.252;2023-07-30T09:14:59;13.80;;;3.10;;
16119;SDS011;12670;53.502;10.252;2023-07-30T09:18:02;8.63;;;2.95;;
16119;SDS011;12670;53.502;10.252;2023-07-30T09:21:05;13.48;;;3.55;;
16119;SDS011;12670;53.502;10.252;2023-07-30T09:24:08;15.65;;;3.90;;
16119;SDS011;12670;53.502;10.252;2023-07-30T09:27:11;9.00;;;2.75;;
16119;SDS011;12670;53.502;10.252;2023-07-30T09:30:15;10.77;;;3.05;;
16119;SDS011;12670;53.502;10.252;2023-07-30T09:33:24;10.90;;;2.92;;
16119;SDS011;12670;53.502;10.252;2023-07-30T09:36:26;15.00;;;3.63;;
16119;SDS011;12670;53.502;10.252;2023-07-30T09:39:29;11.30;;;3.15;;
16119;SDS011;12670;53.502;10.252;2023-07-30T09:42:32;10.18;;;2.78;;
16119;SDS011;12670;53.502;10.252;2023-07-30T09:45:40;14.02;;;4.13;;
16119;SDS011;12670;53.502;10.252;2023-07-30T09:48:46;12.95;;;3.30;;
16119;SDS011;12670;53.502;10.252;2023-07-30T09:51:48;11.68;;;3.95;;
16119;SDS011;12670;53.502;10.252;2023-07-30T09:54:54;10.35;;;3.25;;
16119;SDS011;12670;53.502;10.252;2023-07-30T09:57:59;11.45;;;2.85;;
16119;SDS011;12670;53.502;10.252;2023-07-30T10:01:04;7.50;;;2.58;;
16119;SDS011;12670;53.502;10.252;2023-07-30T10:04:08;13.38;;;3.08;;
16119;SDS011;12670;53.502;10.252;2023-07-30T10:07:12;9.35;;;2.75;;
16119;SDS011;12670;53.502;10.252;2023-07-30T10:10:18;8.93;;;2.97;;
16119;SDS011;12670;53.502;10.252;2023-07-30T10:13:22;9.00;;;2.60;;
16119;SDS011;12670;53.502;10.252;2023-07-30T10:16:28;11.90;;;3.30;;
16119;SDS011;12670;53.502;10.252;2023-07-30T10:19:31;9.02;;;3.03;;
16119;SDS011;12670;53.502;10.252;2023-07-30T10:22:34;11.43;;;2.70;;
16119;SDS011;12670;53.502;10.252;2023-07-30T10:25:45;6.80;;;2.75;;
16119;SDS011;12670;53.502;10.252;2023-07-30T10:28:49;19.25;;;2.90;;
16119;SDS011;12670;53.502;10.252;2023-07-30T10:31:57;9.77;;;2.60;;
16119;SDS011;12670;53.502;10.252;2023-07-30T10:35:01;11.10;;;3.20;;
16119;SDS011;12670;53.502;10.252;2023-07-30T10:38:12;8.75;;;2.72;;
16119;SDS011;12670;53.502;10.252;2023-07-30T10:41:16;9.48;;;2.67;;
16119;SDS011;12670;53.502;10.252;2023-07-30T10:44:22;12.23;;;3.70;;
16119;SDS011;12670;53.502;10.252;2023-07-30T10:47:27;10.13;;;2.95;;
16119;SDS011;12670;53.502;10.252;2023-07-30T10:50:37;8.63;;;2.20;;
16119;SDS011;12670;53.502;10.252;2023-07-30T10:53:41;11.55;;;3.13;;
16119;SDS011;12670;53.502;10.252;2023-07-30T10:56:44;11.80;;;3.35;;
16119;SDS011;12670;53.502;10.252;2023-07-30T10:59:47;10.25;;;2.58;;
16119;SDS011;12670;53.502;10.252;2023-07-30T11:02:54;6.80;;;2.55;;
16119;SDS011;12670;53.502;10.252;2023-07-30T11:05:57;9.63;;;2.72;;
16119;SDS011;12670;53.502;10.252;2023-07-30T11:08:59;10.93;;;2.60;;
16119;SDS011;12670;53.502;10.252;2023-07-30T11:12:02;10.77;;;2.78;;
16119;SDS011;12670;53.502;10.252;2023-07-30T11:15:06;14.32;;;3.33;;
16119;SDS011;12670;53.502;10.252;2023-07-30T11:18:11;7.60;;;2.63;;
16119;SDS011;12670;53.502;10.252;2023-07-30T11:21:15;10.85;;;2.65;;
16119;SDS011;12670;53.502;10.252;2023-07-30T11:24:19;8.50;;;2.40;;
16119;SDS011;12670;53.502;10.252;2023-07-30T11:27:22;12.15;;;2.70;;
16119;SDS011;12670;53.502;10.252;2023-07-30T11:30:25;13.02;;;2.72;;
16119;SDS011;12670;53.502;10.252;2023-07-30T11:33:31;9.30;;;2.58;;
16119;SDS011;12670;53.502;10.252;2023-07-30T11:36:34;7.95;;;2.33;;
16119;SDS011;12670;53.502;10.252;2023-07-30T11:39:37;9.75;;;2.63;;
16119;SDS011;12670;53.502;10.252;2023-07-30T11:42:39;9.18;;;2.63;;
16119;SDS011;12670;53.502;10.252;2023-07-30T11:45:44;8.43;;;2.10;;
16119;SDS011;12670;53.502;10.252;2023-07-30T11:48:48;8.93;;;2.42;;
16119;SDS011;12670;53.502;10.252;2023-07-30T11:52:03;11.82;;;2.65;;
16119;SDS011;12670;53.502;10.252;2023-07-30T11:55:06;10.25;;;2.50;;
16119;SDS011;12670;53.502;10.252;2023-07-30T11:58:10;9.38;;;2.50;;
16119;SDS011;12670;53.502;10.252;2023-07-30T12:01:14;8.23;;;2.50;;
16119;SDS011;12670;53.502;10.252;2023-07-30T12:04:18;10.65;;;2.50;;
16119;SDS011;12670;53.502;10.252;2023-07-30T12:07:24;8.50;;;2.55;;
16119;SDS011;12670;53.502;10.252;2023-07-30T12:10:27;9.30;;;2.10;;
16119;SDS011;12670;53.502;10.252;2023-07-30T12:13:29;8.40;;;2.58;;
16119;SDS011;12670;53.502;10.252;2023-07-30T12:16:33;6.68;;;2.30;;
16119;SDS011;12670;53.502;10.252;2023-07-30T12:19:37;5.68;;;1.95;;
16119;SDS011;12670;53.502;10.252;2023-07-30T12:22:39;6.68;;;2.13;;
16119;SDS011;12670;53.502;10.252;2023-07-30T12:25:43;4.43;;;1.70;;
16119;SDS011;12670;53.502;10.252;2023-07-30T12:28:47;7.93;;;2.70;;
16119;SDS011;12670;53.502;10.252;2023-07-30T12:31:49;8.52;;;1.90;;
16119;SDS011;12670;53.502;10.252;2023-07-30T12:34:55;6.22;;;2.25;;
16119;SDS011;12670;53.502;10.252;2023-07-30T12:37:58;8.63;;;2.97;;
16119;SDS011;12670;53.502;10.252;2023-07-30T12:41:01;5.13;;;1.85;;
16119;SDS011;12670;53.502;10.252;2023-07-30T12:44:04;8.32;;;2.45;;
16119;SDS011;12670;53.502;10.252;2023-07-30T12:47:07;6.18;;;2.05;;
16119;SDS011;12670;53.502;10.252;2023-07-30T12:50:11;9.77;;;2.67;;
16119;SDS011;12670;53.502;10.252;2023-07-30T12:53:13;6.05;;;1.92;;
16119;SDS011;12670;53.502;10.252;2023-07-30T12:56:16;8.88;;;2.33;;
16119;SDS011;12670;53.502;10.252;2023-07-30T12:59:19;10.63;;;3.33;;
16119;SDS011;12670;53.502;10.252;2023-07-30T13:02:21;9.32;;;3.10;;
16119;SDS011;12670;53.502;10.252;2023-07-30T13:05:25;6.00;;;2.33;;
16119;SDS011;12670;53.502;10.252;2023-07-30T13:08:28;9.68;;;2.25;;
16119;SDS011;12670;53.502;10.252;2023-07-30T13:11:31;6.68;;;2.92;;
16119;SDS011;12670;53.502;10.252;2023-07-30T13:14:34;6.35;;;1.80;;
16119;SDS011;12670;53.502;10.252;2023-07-30T13:17:37;7.82;;;3.60;;
16119;SDS011;12670;53.502;10.252;2023-07-30T13:20:41;3.80;;;2.00;;
16119;SDS011;12670;53.502;10.252;2023-07-30T13:23:44;5.72;;;1.98;;
16119;SDS011;12670;53.502;10.252;2023-07-30T13:26:46;7.50;;;2.20;;
16119;SDS011;12670;53.502;10.252;2023-07-30T13:29:49;5.82;;;2.30;;
16119;SDS011;12670;53.502;10.252;2023-07-30T13:32:52;5.80;;;1.92;;
16119;SDS011;12670;53.502;10.252;2023-07-30T13:35:56;14.75;;;6.50;;
16119;SDS011;12670;53.502;10.252;2023-07-30T13:38:58;3.78;;;1.70;;
16119;SDS011;12670;53.502;10.252;2023-07-30T13:42:01;4.68;;;1.75;;
16119;SDS011;12670;53.502;10.252;2023-07-30T13:45:04;6.72;;;1.98;;
16119;SDS011;12670;53.502;10.252;2023-07-30T13:48:08;7.67;;;2.63;;
16119;SDS011;12670;53.502;10.252;2023-07-30T13:51:12;5.40;;;1.63;;
16119;SDS011;12670;53.502;10.252;2023-07-30T13:54:15;6.03;;;1.90;;
16119;SDS011;12670;53.502;10.252;2023-07-30T13:57:21;5.80;;;1.67;;
16119;SDS011;12670;53.502;10.252;2023-07-30T14:00:26;4.47;;;1.70;;
16119;SDS011;12670;53.502;10.252;2023-07-30T14:03:28;3.77;;;1.90;;
16119;SDS011;12670;53.502;10.252;2023-07-30T14:06:32;5.87;;;1.60;;
16119;SDS011;12670;53.502;10.252;2023-07-30T14:09:35;4.77;;;1.50;;
16119;SDS011;12670;53.502;10.252;2023-07-30T14:12:38;4.77;;;1.60;;
16119;SDS011;12670;53.502;10.252;2023-07-30T14:15:41;3.50;;;1.67;;
16119;SDS011;12670;53.502;10.252;2023-07-30T14:18:43;2.87;;;1.73;;
16119;SDS011;12670;53.502;10.252;2023-07-30T14:21:47;3.93;;;1.60;;
16119;SDS011;12670;53.502;10.252;2023-07-30T14:24:50;10.00;;;1.97;;
16119;SDS011;12670;53.502;10.252;2023-07-30T14:27:53;4.43;;;1.90;;
16119;SDS011;12670;53.502;10.252;2023-07-30T14:30:56;4.43;;;1.83;;
16119;SDS011;12670;53.502;10.252;2023-07-30T14:33:58;8.83;;;2.43;;
16119;SDS011;12670;53.502;10.252;2023-07-30T14:37:03;3.73;;;1.50;;
16119;SDS011;12670;53.502;10.252;2023-07-30T14:40:07;4.50;;;1.67;;
16119;SDS011;12670;53.502;10.252;2023-07-30T14:43:10;5.67;;;1.50;;
16119;SDS011;12670;53.502;10.252;2023-07-30T14:46:13;5.60;;;1.60;;
16119;SDS011;12670;53.502;10.252;2023-07-30T14:49:16;6.18;;;2.03;;
16119;SDS011;12670;53.502;10.252;2023-07-30T14:52:21;5.65;;;1.90;;
16119;SDS011;12670;53.502;10.252;2023-07-30T14:55:24;3.23;;;1.50;;
16119;SDS011;12670;53.502;10.252;2023-07-30T14:58:27;8.43;;;2.27;;
16119;SDS011;12670;53.502;10.252;2023-07-30T15:01:30;4.22;;;1.67;;
16119;SDS011;12670;53.502;10.252;2023-07-30T15:04:33;11.88;;;2.40;;
16119;SDS011;12670;53.502;10.252;2023-07-30T15:07:37;6.45;;;2.00;;
16119;SDS011;12670;53.502;10.252;2023-07-30T15:10:40;8.03;;;2.20;;
16119;SDS011;12670;53.502;10.252;2023-07-30T15:13:42;8.77;;;2.30;;
16119;SDS011;12670;53.502;10.252;2023-07-30T15:16:45;7.25;;;2.00;;
16119;SDS011;12670;53.502;10.252;2023-07-30T15:19:47;4.45;;;1.73;;
16119;SDS011;12670;53.502;10.252;2023-07-30T15:22:53;7.05;;;1.83;;
16119;SDS011;12670;53.502;10.252;2023-07-30T15:25:56;5.00;;;1.83;;
16119;SDS011;12670;53.502;10.252;2023-07-30T15:28:59;6.25;;;1.85;;
16119;SDS011;12670;53.502;10.252;2023-07-30T15:32:03;7.07;;;2.35;;
16119;SDS011;12670;53.502;10.252;2023-07-30T15:35:07;5.90;;;1.70;;
16119;SDS011;12670;53.502;10.252;2023-07-30T15:38:11;7.57;;;2.25;;
16119;SDS011;12670;53.502;10.252;2023-07-30T15:41:14;6.57;;;1.77;;
16119;SDS011;12670;53.502;10.252;2023-07-30T15:44:16;5.15;;;1.70;;
16119;SDS011;12670;53.502;10.252;2023-07-30T15:47:19;6.53;;;2.00;;
16119;SDS011;12670;53.502;10.252;2023-07-30T15:50:22;7.57;;;2.08;;
16119;SDS011;12670;53.502;10.252;2023-07-30T15:53:26;9.23;;;2.10;;
16119;SDS011;12670;53.502;10.252;2023-07-30T15:56:29;5.00;;;1.95;;
16119;SDS011;12670;53.502;10.252;2023-07-30T15:59:32;4.13;;;1.63;;
16119;SDS011;12670;53.502;10.252;2023-07-30T16:02:34;5.45;;;2.53;;
16119;SDS011;12670;53.502;10.252;2023-07-30T16:05:37;7.43;;;1.73;;
16119;SDS011;12670;53.502;10.252;2023-07-30T16:08:41;5.70;;;1.73;;
16119;SDS011;12670;53.502;10.252;2023-07-30T16:11:44;5.65;;;1.88;;
16119;SDS011;12670;53.502;10.252;2023-07-30T16:14:46;5.60;;;1.70;;
16119;SDS011;12670;53.502;10.252;2023-07-30T16:17:53;5.93;;;1.80;;
16119;SDS011;12670;53.502;10.252;2023-07-30T16:21:02;7.10;;;2.15;;
16119;SDS011;12670;53.502;10.252;2023-07-30T16:24:07;7.10;;;2.40;;
16119;SDS011;12670;53.502;10.252;2023-07-30T16:27:09;9.43;;;2.40;;
16119;SDS011;12670;53.502;10.252;2023-07-30T16:30:12;7.50;;;1.70;;
16119;SDS011;12670;53.502;10.252;2023-07-30T16:33:15;7.40;;;2.07;;
16119;SDS011;12670;53.502;10.252;2023-07-30T16:36:18;4.23;;;1.83;;
16119;SDS011;12670;53.502;10.252;2023-07-30T16:39:22;7.40;;;2.10;;
16119;SDS011;12670;53.502;10.252;2023-07-30T16:42:25;7.20;;;2.00;;
16119;SDS011;12670;53.502;10.252;2023-07-30T16:45:27;6.83;;;2.17;;
16119;SDS011;12670;53.502;10.252;2023-07-30T16:48:30;7.72;;;2.10;;
16119;SDS011;12670;53.502;10.252;2023-07-30T16:51:33;6.50;;;2.00;;
16119;SDS011;12670;53.502;10.252;2023-07-30T16:54:37;6.27;;;2.07;;
16119;SDS011;12670;53.502;10.252;2023-07-30T16:57:39;6.03;;;2.10;;
16119;SDS011;12670;53.502;10.252;2023-07-30T17:00:43;5.47;;;1.83;;
16119;SDS011;12670;53.502;10.252;2023-07-30T17:03:45;6.70;;;2.03;;
16119;SDS011;12670;53.502;10.252;2023-07-30T17:06:48;3.80;;;1.58;;
16119;SDS011;12670;53.502;10.252;2023-07-30T17:09:52;6.57;;;1.88;;
16119;SDS011;12670;53.502;10.252;2023-07-30T17:12:55;4.90;;;1.73;;
16119;SDS011;12670;53.502;10.252;2023-07-30T17:16:02;4.07;;;1.90;;
16119;SDS011;12670;53.502;10.252;2023-07-30T17:19:06;4.70;;;1.70;;
16119;SDS011;12670;53.502;10.252;2023-07-30T17:22:08;5.95;;;1.63;;
16119;SDS011;12670;53.502;10.252;2023-07-30T17:25:13;6.17;;;1.40;;
16119;SDS011;12670;53.502;10.252;2023-07-30T17:28:15;5.27;;;1.60;;
16119;SDS011;12670;53.502;10.252;2023-07-30T17:31:18;4.63;;;1.43;;
16119;SDS011;12670;53.502;10.252;2023-07-30T17:34:21;4.20;;;1.20;;
16119;SDS011;12670;53.502;10.252;2023-07-30T17:37:24;4.50;;;1.10;;
16119;SDS011;12670;53.502;10.252;2023-07-30T17:40:27;4.57;;;1.50;;
16119;SDS011;12670;53.502;10.252;2023-07-30T17:43:31;3.67;;;1.30;;
16119;SDS011;12670;53.502;10.252;2023-07-30T17:46:34;4.07;;;1.60;;
16119;SDS011;12670;53.502;10.252;2023-07-30T17:49:38;7.47;;;2.40;;
16119;SDS011;12670;53.502;10.252;2023-07-30T17:52:40;5.60;;;1.60;;
16119;SDS011;12670;53.502;10.252;2023-07-30T17:55:44;4.93;;;1.30;;
16119;SDS011;12670;53.502;10.252;2023-07-30T17:58:48;3.37;;;1.20;;
16119;SDS011;12670;53.502;10.252;2023-07-30T18:01:50;3.20;;;1.30;;